Time;durP1;ratioP1;P1;durP2;ratioP2;P2;SDS_P1;SDS_P2;PMS_P1;PMS_P2;Temp;Humidity;BMP_temperature;BMP_pressure;BME280_temperature;BME280_humidity;BME280_pressure;Samples;Min_cycle;Max_cycle;Signal;HPM_P1;HPM_P2
2023/12/26 00:00:29;;;;;;;5.25;3.67;;;;;;;-143.54;100.00;59916.91;5093138;28;20028;-79
2023/12/26 00:02:55;;;;;;;6.40;3.50;;;;;;;-143.54;100.00;59916.91;5093556;28;20399;-80
2023/12/26 00:05:21;;;;;;;6.05;3.80;;;;;;;-143.54;100.00;59916.91;5092976;28;20421;-80
2023/12/26 00:07:47;;;;;;;7.65;3.33;;;;;;;-143.54;100.00;59916.91;5093843;28;20028;-80
2023/12/26 00:10:13;;;;;;;6.65;3.28;;;;;;;-143.54;100.00;59916.91;5094581;28;20471;-80
2023/12/26 00:12:39;;;;;;;7.75;3.53;;;;;;;-143.54;100.00;59916.91;5092898;28;20080;-80
2023/12/26 00:15:04;;;;;;;6.03;3.50;;;;;;;-143.54;100.00;59916.91;5094901;28;20032;-80
2023/12/26 00:17:30;;;;;;;9.52;3.33;;;;;;;-143.54;100.00;59916.91;5093002;28;20050;-80
2023/12/26 00:19:55;;;;;;;7.30;3.30;;;;;;;-143.54;100.00;59916.91;5092998;28;20043;-80
2023/12/26 00:22:21;;;;;;;8.43;3.65;;;;;;;-143.54;100.00;59916.91;5087879;28;20032;-80
2023/12/26 00:24:48;;;;;;;10.15;3.78;;;;;;;-143.54;100.00;59916.91;5092803;28;20028;-80
2023/12/26 00:27:14;;;;;;;8.02;3.17;;;;;;;-143.54;100.00;59916.91;5093219;28;20028;-80
2023/12/26 00:29:41;;;;;;;7.03;3.22;;;;;;;-143.54;100.00;59916.91;5092496;28;20149;-80
2023/12/26 00:32:06;;;;;;;5.57;3.08;;;;;;;-143.54;100.00;59916.91;5092614;28;20532;-80
2023/12/26 00:34:32;;;;;;;7.55;3.03;;;;;;;-143.54;100.00;59916.91;5092927;28;20102;-81
2023/12/26 00:36:57;;;;;;;7.10;3.30;;;;;;;-143.54;100.00;59916.91;5088365;28;20486;-80
2023/12/26 00:39:22;;;;;;;4.38;3.00;;;;;;;-143.54;100.00;59916.91;5092474;28;20421;-80
2023/12/26 00:41:48;;;;;;;9.07;3.45;;;;;;;-143.54;100.00;59916.91;5092877;28;20027;-81
2023/12/26 00:44:13;;;;;;;5.93;3.13;;;;;;;-143.54;100.00;59916.91;5091923;28;20028;-80
2023/12/26 00:46:38;;;;;;;5.82;3.28;;;;;;;-143.54;100.00;59916.91;5092356;28;20031;-81
2023/12/26 00:49:04;;;;;;;7.38;3.15;;;;;;;-143.54;100.00;59916.91;5094643;28;20517;-81
2023/12/26 00:51:30;;;;;;;8.15;3.13;;;;;;;-143.54;100.00;59916.91;5096496;28;20433;-81
2023/12/26 00:53:56;;;;;;;5.85;3.60;;;;;;;-143.54;100.00;59916.91;5092420;28;20020;-81
2023/12/26 00:56:21;;;;;;;5.30;2.60;;;;;;;-143.54;100.00;59916.91;5097362;28;20027;-80
2023/12/26 00:58:47;;;;;;;9.23;3.28;;;;;;;-143.54;100.00;59916.91;5085213;28;20461;-80
2023/12/26 01:01:12;;;;;;;5.57;3.13;;;;;;;-143.54;100.00;59916.91;5090903;28;20491;-80
2023/12/26 01:03:37;;;;;;;6.93;3.70;;;;;;;-143.54;100.00;59916.91;5092239;28;20043;-81
2023/12/26 01:06:03;;;;;;;5.60;3.30;;;;;;;-143.54;100.00;59916.91;5095855;28;20023;-81
2023/12/26 01:08:28;;;;;;;3.88;2.97;;;;;;;-143.54;100.00;59916.91;5093480;28;20369;-81
2023/12/26 01:10:53;;;;;;;4.20;2.78;;;;;;;-143.54;100.00;59916.91;5092243;28;20391;-80
2023/12/26 01:13:19;;;;;;;6.40;3.10;;;;;;;-143.54;100.00;59916.91;5091912;28;20024;-81
2023/12/26 01:15:44;;;;;;;7.47;3.72;;;;;;;-143.54;100.00;59916.91;5092075;28;20138;-81
2023/12/26 01:18:10;;;;;;;6.32;2.95;;;;;;;-143.54;100.00;59916.91;5091663;28;20031;-80
2023/12/26 01:20:35;;;;;;;4.70;2.92;;;;;;;-143.54;100.00;59916.91;5092133;28;20107;-80
2023/12/26 01:23:02;;;;;;;4.43;2.83;;;;;;;-143.54;100.00;59916.91;5092978;28;20024;-80
2023/12/26 01:25:27;;;;;;;6.65;2.92;;;;;;;-143.54;100.00;59916.91;5091265;28;20472;-80
2023/12/26 01:27:53;;;;;;;4.35;2.35;;;;;;;-143.54;100.00;59916.91;5092282;28;20052;-80
2023/12/26 01:30:19;;;;;;;2.92;2.63;;;;;;;-143.54;100.00;59916.91;5091866;28;20028;-80
2023/12/26 01:32:44;;;;;;;3.72;2.55;;;;;;;-143.54;100.00;59916.91;5093599;28;20499;-80
2023/12/26 01:35:10;;;;;;;5.97;2.50;;;;;;;-143.54;100.00;59916.91;5091835;28;20030;-80
2023/12/26 01:37:35;;;;;;;2.90;2.58;;;;;;;-143.54;100.00;59916.91;5090526;28;20090;-80
2023/12/26 01:40:00;;;;;;;4.57;2.20;;;;;;;-143.54;100.00;59916.91;5091781;28;20024;-80
2023/12/26 01:42:26;;;;;;;5.78;2.70;;;;;;;-143.54;100.00;59916.91;5089032;28;20491;-80
2023/12/26 01:44:51;;;;;;;5.15;2.90;;;;;;;-143.54;100.00;59916.91;5084855;28;20387;-81
2023/12/26 01:47:17;;;;;;;6.72;3.05;;;;;;;-143.54;100.00;59916.91;5089773;28;20028;-81
2023/12/26 01:49:44;;;;;;;4.45;2.78;;;;;;;-143.54;100.00;59916.91;5087061;28;20051;-80
2023/12/26 01:52:12;;;;;;;5.80;2.95;;;;;;;-143.54;100.00;59916.91;5091683;28;20527;-80
2023/12/26 01:54:38;;;;;;;5.82;2.85;;;;;;;-143.54;100.00;59916.91;5100607;28;20039;-80
2023/12/26 01:57:06;;;;;;;4.07;2.90;;;;;;;-143.54;100.00;59916.91;5086407;28;20024;-82
2023/12/26 01:59:33;;;;;;;5.45;3.17;;;;;;;-143.54;100.00;59916.91;5093780;28;20040;-81
2023/12/26 02:01:59;;;;;;;4.75;3.70;;;;;;;-143.54;100.00;59916.91;5092501;28;20040;-80
2023/12/26 02:04:26;;;;;;;7.22;3.50;;;;;;;-143.54;100.00;59916.91;5085615;28;20511;-80
2023/12/26 02:06:51;;;;;;;5.90;3.85;;;;;;;-143.54;100.00;59916.91;5084893;28;20035;-81
2023/12/26 02:09:17;;;;;;;6.63;3.58;;;;;;;-143.54;100.00;59916.91;5088344;28;20053;-81
2023/12/26 02:11:43;;;;;;;5.80;3.33;;;;;;;-143.54;100.00;59916.91;5090766;28;20150;-80
2023/12/26 02:14:09;;;;;;;6.07;3.90;;;;;;;-143.54;100.00;59916.91;5102087;28;20103;-80
2023/12/26 02:16:37;;;;;;;7.57;4.07;;;;;;;-143.54;100.00;59916.91;5094672;28;20532;-80
2023/12/26 02:19:03;;;;;;;6.15;4.07;;;;;;;-143.54;100.00;59916.91;5101768;28;20386;-80
2023/12/26 02:21:29;;;;;;;7.53;4.40;;;;;;;-143.54;100.00;59916.91;5099020;28;20048;-80
2023/12/26 02:23:55;;;;;;;6.50;4.80;;;;;;;-143.54;100.00;59916.91;5085045;28;20056;-80
2023/12/26 02:26:26;;;;;;;7.38;5.20;;;;;;;-143.54;100.00;59916.91;5091461;28;20024;-80
2023/12/26 02:28:53;;;;;;;11.30;5.57;;;;;;;-143.54;100.00;59916.91;5097702;28;20492;-80
2023/12/26 02:31:20;;;;;;;9.68;5.00;;;;;;;-143.54;100.00;59916.91;5094645;28;20463;-81
2023/12/26 02:33:47;;;;;;;6.53;4.80;;;;;;;-143.54;100.00;59916.91;5096912;28;20024;-80
2023/12/26 02:36:13;;;;;;;6.68;4.88;;;;;;;-143.54;100.00;59916.91;5094901;28;20062;-81
2023/12/26 02:38:38;;;;;;;8.05;4.85;;;;;;;-143.54;100.00;59916.91;5085619;28;20060;-80
2023/12/26 02:41:04;;;;;;;5.50;4.32;;;;;;;-143.54;100.00;59916.91;5095508;28;20052;-80
2023/12/26 02:43:29;;;;;;;8.90;4.68;;;;;;;-143.54;100.00;59916.91;5096476;28;20066;-80
2023/12/26 02:45:55;;;;;;;7.43;4.15;;;;;;;-143.54;100.00;59916.91;5094401;28;20028;-80
2023/12/26 02:48:20;;;;;;;4.30;3.47;;;;;;;-143.54;100.00;59916.91;5103633;28;20023;-80
2023/12/26 02:50:46;;;;;;;4.70;3.72;;;;;;;-143.54;100.00;59916.91;5097875;28;20396;-80
2023/12/26 02:53:12;;;;;;;4.38;3.70;;;;;;;-143.54;100.00;59916.91;5095805;28;20114;-80
2023/12/26 02:55:38;;;;;;;6.28;3.88;;;;;;;-143.54;100.00;59916.91;5087251;28;20116;-80
2023/12/26 02:58:03;;;;;;;5.00;3.88;;;;;;;-143.54;100.00;59916.91;5098770;28;20504;-80
2023/12/26 03:00:29;;;;;;;5.70;4.38;;;;;;;-143.54;100.00;59916.91;5095391;28;20054;-80
2023/12/26 03:02:55;;;;;;;7.18;5.28;;;;;;;-143.54;100.00;59916.91;5102548;28;20016;-80
2023/12/26 03:05:20;;;;;;;9.40;4.90;;;;;;;-143.54;100.00;59916.91;5093435;28;20024;-81
2023/12/26 03:07:46;;;;;;;6.13;4.55;;;;;;;-143.54;100.00;59916.91;5090155;28;20032;-81
2023/12/26 03:10:11;;;;;;;8.77;4.72;;;;;;;-143.54;100.00;59916.91;5096028;28;20031;-80
2023/12/26 03:12:37;;;;;;;12.10;7.30;;;;;;;-143.54;100.00;59916.91;5093716;28;20486;-80
2023/12/26 03:15:03;;;;;;;11.43;7.25;;;;;;;-143.54;100.00;59916.91;5093065;28;20028;-80
2023/12/26 03:17:29;;;;;;;11.55;7.15;;;;;;;-143.54;100.00;59916.91;5099664;28;20023;-80
2023/12/26 03:19:55;;;;;;;10.55;7.43;;;;;;;-143.54;100.00;59916.91;5102558;28;20035;-80
2023/12/26 03:22:20;;;;;;;11.70;7.75;;;;;;;-143.54;100.00;59916.91;5097355;28;20034;-80
2023/12/26 03:24:46;;;;;;;11.52;7.43;;;;;;;-143.54;100.00;59916.91;5093357;28;20024;-80
2023/12/26 03:27:12;;;;;;;10.85;7.72;;;;;;;-143.54;100.00;59916.91;5100926;28;20031;-80
2023/12/26 03:29:38;;;;;;;12.52;8.48;;;;;;;-143.54;100.00;59916.91;5099756;28;20391;-80
2023/12/26 03:32:04;;;;;;;15.15;9.25;;;;;;;-143.54;100.00;59916.91;5093032;28;20443;-80
2023/12/26 03:34:29;;;;;;;11.88;7.90;;;;;;;-143.54;100.00;59916.91;5089634;28;20126;-80
2023/12/26 03:36:54;;;;;;;18.75;8.80;;;;;;;-143.54;100.00;59916.91;5099439;28;20032;-80
2023/12/26 03:39:20;;;;;;;14.00;7.40;;;;;;;-143.54;100.00;59916.91;5088359;28;20383;-80
2023/12/26 03:41:48;;;;;;;13.43;7.82;;;;;;;-143.54;100.00;59916.91;5097515;28;20376;-80
2023/12/26 03:44:15;;;;;;;14.60;7.18;;;;;;;-143.54;100.00;59916.91;5095137;28;20027;-80
2023/12/26 03:46:41;;;;;;;12.93;7.57;;;;;;;-143.54;100.00;59916.91;5097069;28;20490;-80
2023/12/26 03:49:06;;;;;;;10.63;7.30;;;;;;;-143.54;100.00;59916.91;5095514;28;20028;-80
2023/12/26 03:51:32;;;;;;;12.50;7.35;;;;;;;-143.54;100.00;59916.91;5094185;28;20526;-80
2023/12/26 03:53:57;;;;;;;15.93;7.25;;;;;;;-143.54;100.00;59916.91;5089555;28;20430;-80
2023/12/26 03:56:22;;;;;;;11.95;7.25;;;;;;;-143.54;100.00;59916.91;5094167;28;20028;-80
2023/12/26 03:58:48;;;;;;;11.32;6.18;;;;;;;-143.54;100.00;59916.91;5095033;28;20079;-80
2023/12/26 04:01:13;;;;;;;12.07;6.40;;;;;;;-143.54;100.00;59916.91;5092676;28;20422;-80
2023/12/26 04:03:39;;;;;;;15.95;6.63;;;;;;;-143.54;100.00;59916.91;5092687;28;20028;-80
2023/12/26 04:06:04;;;;;;;16.30;6.50;;;;;;;-143.54;100.00;59916.91;5093592;28;20081;-80
2023/12/26 04:08:30;;;;;;;11.57;5.35;;;;;;;-143.54;100.00;59916.91;5098208;28;20468;-80
2023/12/26 04:10:55;;;;;;;14.52;6.25;;;;;;;-143.54;100.00;59916.91;5092487;28;20034;-80
2023/12/26 04:13:21;;;;;;;12.68;5.90;;;;;;;-143.54;100.00;59916.91;5092231;28;20098;-80
2023/12/26 04:15:46;;;;;;;10.65;5.00;;;;;;;-143.54;100.00;59916.91;5092825;28;20024;-80
2023/12/26 04:18:11;;;;;;;13.43;5.07;;;;;;;-143.54;100.00;59916.91;5092784;28;20467;-80
2023/12/26 04:20:37;;;;;;;11.45;4.68;;;;;;;-143.54;100.00;59916.91;5093224;28;20062;-80
2023/12/26 04:23:02;;;;;;;13.52;4.45;;;;;;;-143.54;100.00;59916.91;5098969;28;20054;-80
2023/12/26 04:25:28;;;;;;;19.35;5.32;;;;;;;-143.54;100.00;59916.91;5086216;28;20090;-79
2023/12/26 04:27:54;;;;;;;12.52;4.50;;;;;;;-143.54;100.00;59916.91;5090265;28;20113;-80
2023/12/26 04:30:19;;;;;;;12.40;4.28;;;;;;;-143.54;100.00;59916.91;5089459;28;20035;-80
2023/12/26 04:32:45;;;;;;;10.07;3.58;;;;;;;-143.54;100.00;59916.91;5094498;28;20028;-79
2023/12/26 04:35:11;;;;;;;12.88;3.33;;;;;;;-143.54;100.00;59916.91;5091559;28;20028;-80
2023/12/26 04:37:36;;;;;;;11.68;3.30;;;;;;;-143.54;100.00;59916.91;5098705;28;20054;-80
2023/12/26 04:40:02;;;;;;;11.18;3.40;;;;;;;-143.54;100.00;59916.91;5093111;28;20074;-80
2023/12/26 04:42:28;;;;;;;13.60;3.35;;;;;;;-143.54;100.00;59916.91;5089628;28;20395;-80
2023/12/26 04:44:54;;;;;;;10.85;2.80;;;;;;;-143.54;100.00;59916.91;5092415;28;20028;-80
2023/12/26 04:47:21;;;;;;;15.10;2.92;;;;;;;-143.54;100.00;59916.91;5094430;28;20026;-80
2023/12/26 04:49:46;;;;;;;11.02;2.80;;;;;;;-143.54;100.00;59916.91;5092387;28;20053;-80
2023/12/26 04:52:11;;;;;;;11.60;3.13;;;;;;;-143.54;100.00;59916.91;5088461;28;20032;-80
2023/12/26 04:54:37;;;;;;;12.45;3.55;;;;;;;-143.54;100.00;59916.91;5089267;28;20376;-80
2023/12/26 04:57:02;;;;;;;12.93;2.72;;;;;;;-143.54;100.00;59916.91;5079600;28;20027;-80
2023/12/26 04:59:28;;;;;;;11.23;2.35;;;;;;;-143.54;100.00;59916.91;5101545;28;20480;-80
2023/12/26 05:01:53;;;;;;;9.73;2.42;;;;;;;-143.54;100.00;59916.91;5095148;28;20027;-80
2023/12/26 05:04:18;;;;;;;13.38;2.20;;;;;;;-143.54;100.00;59916.91;5091925;28;20020;-80
2023/12/26 05:06:44;;;;;;;13.57;2.03;;;;;;;-143.54;100.00;59916.91;5092148;28;20493;-80
2023/12/26 05:09:09;;;;;;;5.72;2.10;;;;;;;-143.54;100.00;59916.91;5101029;28;20035;-80
2023/12/26 05:11:34;;;;;;;14.18;2.80;;;;;;;-143.54;100.00;59916.91;5085371;28;20024;-79
2023/12/26 05:14:00;;;;;;;18.50;2.88;;;;;;;-143.54;100.00;59916.91;5092421;28;20368;-80
2023/12/26 05:16:27;;;;;;;15.57;2.63;;;;;;;-143.54;100.00;59916.91;5088909;28;20031;-80
2023/12/26 05:18:53;;;;;;;8.55;2.28;;;;;;;-143.54;100.00;59916.91;5089314;28;20035;-80
2023/12/26 05:21:19;;;;;;;9.85;2.33;;;;;;;-143.54;100.00;59916.91;5092068;28;20365;-80
2023/12/26 05:23:45;;;;;;;7.28;1.98;;;;;;;-143.54;100.00;59916.91;5091324;28;20047;-80
2023/12/26 05:26:10;;;;;;;13.02;2.78;;;;;;;-143.54;100.00;59916.91;5083230;28;20063;-80
2023/12/26 05:28:38;;;;;;;8.63;2.40;;;;;;;-143.54;100.00;59916.91;5089494;28;20107;-80
2023/12/26 05:31:04;;;;;;;14.20;2.42;;;;;;;-143.54;100.00;59916.91;5093396;28;20020;-80
2023/12/26 05:33:30;;;;;;;8.60;2.13;;;;;;;-143.54;100.00;59916.91;5095263;28;20034;-79
2023/12/26 05:35:55;;;;;;;9.90;1.83;;;;;;;-143.54;100.00;59916.91;5091524;28;20016;-80
2023/12/26 05:38:21;;;;;;;11.80;2.58;;;;;;;-143.54;100.00;59916.91;5090634;28;20451;-80
2023/12/26 05:40:47;;;;;;;9.68;1.90;;;;;;;-143.54;100.00;59916.91;5091815;28;20122;-80
2023/12/26 05:43:12;;;;;;;13.73;1.98;;;;;;;-143.54;100.00;59916.91;5089280;28;20147;-80
2023/12/26 05:45:37;;;;;;;11.30;2.30;;;;;;;-143.54;100.00;59916.91;5091856;28;20070;-80
2023/12/26 05:48:05;;;;;;;9.82;1.50;;;;;;;-143.54;100.00;59916.91;5104490;28;20023;-80
2023/12/26 05:50:30;;;;;;;8.63;2.47;;;;;;;-143.54;100.00;59916.91;5087461;28;20075;-80
2023/12/26 05:52:56;;;;;;;11.32;1.73;;;;;;;-143.54;100.00;59916.91;5095647;28;20054;-80
2023/12/26 05:55:21;;;;;;;11.73;2.38;;;;;;;-143.54;100.00;59916.91;5095166;28;20099;-80
2023/12/26 05:57:46;;;;;;;9.40;2.20;;;;;;;-143.54;100.00;59916.91;5093951;28;20061;-80
2023/12/26 06:00:12;;;;;;;12.30;2.28;;;;;;;-143.54;100.00;59916.91;5095427;28;20040;-80
2023/12/26 06:02:38;;;;;;;9.90;1.70;;;;;;;-143.54;100.00;59916.91;5095906;28;20064;-79
2023/12/26 06:05:03;;;;;;;7.97;1.75;;;;;;;-143.54;100.00;59916.91;5096212;28;20176;-80
2023/12/26 06:07:29;;;;;;;9.77;1.98;;;;;;;-143.54;100.00;59916.91;5103572;28;20039;-80
2023/12/26 06:09:54;;;;;;;9.45;1.90;;;;;;;-143.54;100.00;59916.91;5091592;28;20794;-80
2023/12/26 06:12:19;;;;;;;12.10;1.67;;;;;;;-143.54;100.00;59916.91;5090395;28;20051;-80
2023/12/26 06:14:45;;;;;;;7.95;1.85;;;;;;;-143.54;100.00;59916.91;5092323;28;20035;-80
2023/12/26 06:17:10;;;;;;;9.55;1.70;;;;;;;-143.54;100.00;59916.91;5103720;28;20028;-80
2023/12/26 06:19:35;;;;;;;11.20;1.70;;;;;;;-143.54;100.00;59916.91;5095519;28;20107;-80
2023/12/26 06:22:01;;;;;;;9.80;1.73;;;;;;;-143.54;100.00;59916.91;5085727;28;20031;-80
2023/12/26 06:24:26;;;;;;;6.88;1.50;;;;;;;-143.54;100.00;59916.91;5094421;28;20071;-80
2023/12/26 06:26:51;;;;;;;9.70;1.98;;;;;;;-143.54;100.00;59916.91;5101882;28;20032;-80
2023/12/26 06:29:18;;;;;;;9.88;2.25;;;;;;;-143.54;100.00;59916.91;5103539;28;20020;-80
2023/12/26 06:31:43;;;;;;;10.38;2.20;;;;;;;-143.54;100.00;59916.91;5091753;28;20031;-80
2023/12/26 06:34:09;;;;;;;10.27;1.80;;;;;;;-143.54;100.00;59916.91;5095522;28;20038;-80
2023/12/26 06:36:34;;;;;;;11.98;2.00;;;;;;;-143.54;100.00;59916.91;5094253;28;20464;-80
2023/12/26 06:39:03;;;;;;;7.80;1.90;;;;;;;-143.54;100.00;59916.91;5094972;28;20434;-80
2023/12/26 06:41:29;;;;;;;12.43;2.08;;;;;;;-143.54;100.00;59916.91;5085860;28;20111;-80
2023/12/26 06:43:55;;;;;;;8.18;2.40;;;;;;;-143.54;100.00;59916.91;5095210;28;20040;-80
2023/12/26 06:46:21;;;;;;;11.98;1.95;;;;;;;-143.54;100.00;59916.91;5088220;28;20443;-80
2023/12/26 06:48:47;;;;;;;11.10;2.03;;;;;;;-143.54;100.00;59916.91;5094771;28;20032;-80
2023/12/26 06:51:15;;;;;;;14.68;2.15;;;;;;;-143.54;100.00;59916.91;5095031;28;20383;-80
2023/12/26 06:53:41;;;;;;;13.77;1.63;;;;;;;-143.54;100.00;59916.91;5103239;28;20399;-80
2023/12/26 06:56:07;;;;;;;10.80;2.20;;;;;;;-143.54;100.00;59916.91;5091554;28;20028;-80
2023/12/26 06:58:34;;;;;;;10.80;2.55;;;;;;;-143.54;100.00;59916.91;5093803;28;20404;-80
2023/12/26 07:01:01;;;;;;;13.80;1.83;;;;;;;-143.54;100.00;59916.91;5094782;28;20047;-80
2023/12/26 07:03:26;;;;;;;11.57;1.60;;;;;;;-143.54;100.00;59916.91;5094118;28;20024;-80
2023/12/26 07:05:51;;;;;;;8.35;1.90;;;;;;;-143.54;100.00;59916.91;5100467;28;20513;-80
2023/12/26 07:08:17;;;;;;;9.90;1.73;;;;;;;-143.54;100.00;59916.91;5094901;28;20477;-80
2023/12/26 07:10:43;;;;;;;11.65;2.30;;;;;;;-143.54;100.00;59916.91;5094255;28;20024;-80
2023/12/26 07:13:09;;;;;;;10.57;1.90;;;;;;;-143.54;100.00;59916.91;5094124;28;20464;-80
2023/12/26 07:15:34;;;;;;;10.43;1.88;;;;;;;-143.54;100.00;59916.91;5094269;28;20048;-80
2023/12/26 07:18:00;;;;;;;10.75;2.15;;;;;;;-143.54;100.00;59916.91;5097554;28;20032;-80
2023/12/26 07:20:25;;;;;;;11.02;1.92;;;;;;;-143.54;100.00;59916.91;5094330;28;20059;-80
2023/12/26 07:22:51;;;;;;;7.93;2.05;;;;;;;-143.54;100.00;59916.91;5085179;28;20557;-80
2023/12/26 07:25:16;;;;;;;11.15;2.25;;;;;;;-143.54;100.00;59916.91;5086915;28;20035;-80
2023/12/26 07:27:41;;;;;;;8.43;1.80;;;;;;;-143.54;100.00;59916.91;5093686;28;20360;-80
2023/12/26 07:30:07;;;;;;;6.60;1.95;;;;;;;-143.54;100.00;59916.91;5095362;28;20024;-80
2023/12/26 07:32:33;;;;;;;5.50;1.40;;;;;;;-143.54;100.00;59916.91;5096311;28;20038;-80
2023/12/26 07:34:58;;;;;;;6.63;1.67;;;;;;;-143.54;100.00;59916.91;5093884;28;20043;-80
2023/12/26 07:37:23;;;;;;;11.80;2.13;;;;;;;-143.54;100.00;59916.91;5097107;28;20036;-81
2023/12/26 07:39:48;;;;;;;13.85;2.25;;;;;;;-143.54;100.00;59916.91;5096330;28;20379;-80
2023/12/26 07:42:14;;;;;;;10.68;1.90;;;;;;;-143.54;100.00;59916.91;5102494;28;20379;-80
2023/12/26 07:44:39;;;;;;;9.68;3.08;;;;;;;-143.54;100.00;59916.91;5088129;28;20033;-80
2023/12/26 07:47:05;;;;;;;10.35;1.77;;;;;;;-143.54;100.00;59916.91;5095571;28;20016;-81
2023/12/26 07:49:30;;;;;;;8.30;2.83;;;;;;;-143.54;100.00;59916.91;5093802;28;20024;-80
2023/12/26 07:51:55;;;;;;;6.65;1.85;;;;;;;-143.54;100.00;59916.91;5095560;28;20103;-80
2023/12/26 07:54:21;;;;;;;12.63;2.22;;;;;;;-143.54;100.00;59916.91;5093596;28;20384;-80
2023/12/26 07:56:46;;;;;;;8.73;1.95;;;;;;;-143.54;100.00;59916.91;5094008;28;20119;-80
2023/12/26 07:59:13;;;;;;;11.23;1.90;;;;;;;-143.54;100.00;59916.91;5092970;28;20048;-81
2023/12/26 08:01:38;;;;;;;7.65;1.77;;;;;;;-143.54;100.00;59916.91;5087521;28;20031;-80
2023/12/26 08:04:04;;;;;;;5.53;1.70;;;;;;;-143.54;100.00;59916.91;5093565;28;20047;-80
2023/12/26 08:06:31;;;;;;;13.13;1.92;;;;;;;-143.54;100.00;59916.91;5095156;28;20110;-80
2023/12/26 08:08:58;;;;;;;12.05;1.88;;;;;;;-143.54;100.00;59916.91;5083815;28;20463;-80
2023/12/26 08:11:24;;;;;;;10.73;1.80;;;;;;;-143.54;100.00;59916.91;5092792;28;20111;-80
2023/12/26 08:13:50;;;;;;;7.53;2.15;;;;;;;-143.54;100.00;59916.91;5090078;28;20552;-80
2023/12/26 08:16:15;;;;;;;13.43;2.05;;;;;;;-143.54;100.00;59916.91;5099307;28;20034;-81
2023/12/26 08:18:41;;;;;;;13.85;2.10;;;;;;;-143.54;100.00;59916.91;5084283;28;20403;-81
2023/12/26 08:21:08;;;;;;;10.60;2.33;;;;;;;-143.54;100.00;59916.91;5086894;28;20063;-80
2023/12/26 08:23:36;;;;;;;9.38;2.00;;;;;;;-143.54;100.00;59916.91;5089077;28;20032;-80
2023/12/26 08:26:10;;;;;;;10.18;2.10;;;;;;;-143.54;100.00;59916.91;5102494;28;20110;-80
2023/12/26 08:28:36;;;;;;;10.80;2.38;;;;;;;-143.54;100.00;59916.91;5096192;28;20407;-79
2023/12/26 08:31:02;;;;;;;12.13;2.17;;;;;;;-143.54;100.00;59916.91;5101415;28;20501;-81
2023/12/26 08:33:29;;;;;;;15.45;2.20;;;;;;;-143.54;100.00;59916.91;5092398;28;20421;-81
2023/12/26 08:35:55;;;;;;;16.15;2.85;;;;;;;-143.54;100.00;59916.91;5094923;28;20024;-81
2023/12/26 08:38:20;;;;;;;9.90;2.50;;;;;;;-143.54;100.00;59916.91;5096921;28;20525;-80
2023/12/26 08:40:45;;;;;;;11.88;2.38;;;;;;;-143.54;100.00;59916.91;5092824;28;20115;-81
2023/12/26 08:43:11;;;;;;;12.65;2.63;;;;;;;-143.54;100.00;59916.91;5092168;28;20027;-81
2023/12/26 08:45:36;;;;;;;9.43;2.05;;;;;;;-143.54;100.00;59916.91;5099911;28;20513;-80
2023/12/26 08:48:02;;;;;;;13.98;2.53;;;;;;;-143.54;100.00;59916.91;5094820;28;20040;-80
2023/12/26 08:50:27;;;;;;;12.27;2.95;;;;;;;-143.54;100.00;59916.91;5092204;28;20036;-80
2023/12/26 08:52:53;;;;;;;15.50;3.13;;;;;;;-143.54;100.00;59916.91;5094551;28;20054;-80
2023/12/26 08:55:18;;;;;;;17.60;2.97;;;;;;;-143.54;100.00;59916.91;5091466;28;20028;-80
2023/12/26 08:57:43;;;;;;;11.05;2.60;;;;;;;-143.54;100.00;59916.91;5087947;28;20044;-81
2023/12/26 09:00:12;;;;;;;15.48;2.88;;;;;;;-143.54;100.00;59916.91;5089910;28;20035;-79
2023/12/26 09:02:37;;;;;;;8.93;2.58;;;;;;;-143.54;100.00;59916.91;5092353;28;20030;-80
2023/12/26 09:05:04;;;;;;;12.98;2.33;;;;;;;-143.54;100.00;59916.91;5105951;28;20367;-80
2023/12/26 09:07:29;;;;;;;11.70;2.33;;;;;;;-143.54;100.00;59916.91;5092669;28;20486;-82
2023/12/26 09:09:55;;;;;;;8.63;1.90;;;;;;;-143.54;100.00;59916.91;5096623;28;20016;-81
2023/12/26 09:12:21;;;;;;;11.00;2.70;;;;;;;-143.54;100.00;59916.91;5100901;28;20024;-81
2023/12/26 09:14:47;;;;;;;7.65;2.20;;;;;;;-143.54;100.00;59916.91;5097261;28;20452;-80
2023/12/26 09:17:13;;;;;;;12.38;2.45;;;;;;;-143.54;100.00;59916.91;5099024;28;20032;-81
2023/12/26 09:19:39;;;;;;;10.15;2.25;;;;;;;-143.54;100.00;59916.91;5097360;28;20024;-81
2023/12/26 09:22:05;;;;;;;11.27;2.10;;;;;;;-143.54;100.00;59916.91;5099807;28;20032;-81
2023/12/26 09:24:30;;;;;;;9.88;1.92;;;;;;;-143.54;100.00;59916.91;5096324;28;20020;-81
2023/12/26 09:26:56;;;;;;;9.93;1.98;;;;;;;-143.54;100.00;59916.91;5100211;28;20049;-81
2023/12/26 09:29:21;;;;;;;17.23;2.33;;;;;;;-143.54;100.00;59916.91;5093138;28;20101;-81
2023/12/26 09:31:46;;;;;;;7.95;2.22;;;;;;;-143.54;100.00;59916.91;5100113;28;20030;-81
2023/12/26 09:34:12;;;;;;;13.57;2.47;;;;;;;-143.54;100.00;59916.91;5092289;28;20452;-81
2023/12/26 09:36:37;;;;;;;8.15;2.40;;;;;;;-143.54;100.00;59916.91;5100477;28;20088;-81
2023/12/26 09:39:03;;;;;;;11.00;2.45;;;;;;;-143.54;100.00;59916.91;5093401;28;20064;-81
2023/12/26 09:41:28;;;;;;;15.55;3.17;;;;;;;-143.54;100.00;59916.91;5091882;28;20497;-81
2023/12/26 09:43:54;;;;;;;15.70;1.92;;;;;;;-143.54;100.00;59916.91;5091991;28;20048;-81
2023/12/26 09:46:20;;;;;;;9.52;1.92;;;;;;;-143.54;100.00;59916.91;5090708;28;20028;-81
2023/12/26 09:48:45;;;;;;;14.88;2.50;;;;;;;-143.54;100.00;59916.91;5086634;28;20028;-81
2023/12/26 09:51:20;;;;;;;11.20;2.55;;;;;;;-143.54;100.00;59916.91;5092940;28;20504;-81
2023/12/26 09:53:49;;;;;;;13.07;2.10;;;;;;;-143.54;100.00;59916.91;5092468;28;20032;-81
2023/12/26 09:56:15;;;;;;;14.57;2.35;;;;;;;-143.54;100.00;59916.91;5092092;28;20020;-81
2023/12/26 09:58:43;;;;;;;19.50;2.58;;;;;;;-143.54;100.00;59916.91;5091018;28;20395;-81
2023/12/26 10:01:11;;;;;;;10.38;2.13;;;;;;;-143.54;100.00;59916.91;5091717;28;20039;-81
2023/12/26 10:03:37;;;;;;;11.63;2.60;;;;;;;-143.54;100.00;59916.91;5091442;28;20024;-81
2023/12/26 10:06:03;;;;;;;14.25;2.47;;;;;;;-143.54;100.00;59916.91;5091759;28;20032;-80
2023/12/26 10:08:29;;;;;;;10.43;2.22;;;;;;;-143.54;100.00;59916.91;5091140;28;20031;-81
2023/12/26 10:10:54;;;;;;;15.88;2.78;;;;;;;-143.54;100.00;59916.91;5091870;28;20020;-80
2023/12/26 10:13:20;;;;;;;14.52;2.42;;;;;;;-143.54;100.00;59916.91;5090747;28;20016;-81
2023/12/26 10:15:45;;;;;;;17.77;3.03;;;;;;;-143.54;100.00;59916.91;5091825;28;20020;-81
2023/12/26 10:18:11;;;;;;;11.18;2.30;;;;;;;-143.54;100.00;59916.91;5095936;28;20035;-81
2023/12/26 10:20:36;;;;;;;10.13;2.55;;;;;;;-143.54;100.00;59916.91;5090988;28;20388;-81
2023/12/26 10:23:04;;;;;;;20.63;3.17;;;;;;;-143.54;100.00;59916.91;5091631;28;20028;-81
2023/12/26 10:25:30;;;;;;;14.85;2.83;;;;;;;-143.54;100.00;59916.91;5091557;28;20024;-81
2023/12/26 10:27:55;;;;;;;12.32;2.85;;;;;;;-143.54;100.00;59916.91;5091254;28;20047;-81
2023/12/26 10:30:21;;;;;;;12.70;2.72;;;;;;;-143.54;100.00;59916.91;5091000;28;20110;-81
2023/12/26 10:32:56;;;;;;;11.90;2.55;;;;;;;-143.54;100.00;59916.91;5093904;28;20039;-81
2023/12/26 10:35:22;;;;;;;11.98;3.10;;;;;;;-143.54;100.00;59916.91;5094563;28;20024;-81
2023/12/26 10:37:47;;;;;;;12.90;3.38;;;;;;;-143.54;100.00;59916.91;5095068;28;20032;-81
2023/12/26 10:40:13;;;;;;;14.35;2.88;;;;;;;-143.54;100.00;59916.91;5095764;28;20095;-81
2023/12/26 10:42:41;;;;;;;12.45;3.00;;;;;;;-143.54;100.00;59916.91;5094246;28;20436;-81
2023/12/26 10:45:08;;;;;;;12.07;2.50;;;;;;;-143.54;100.00;59916.91;5095327;28;20031;-81
2023/12/26 10:47:34;;;;;;;10.38;2.10;;;;;;;-143.54;100.00;59916.91;5094406;28;20115;-81
2023/12/26 10:50:02;;;;;;;11.40;2.70;;;;;;;-143.54;100.00;59916.91;5094868;28;20024;-81
2023/12/26 10:52:28;;;;;;;12.38;2.95;;;;;;;-143.54;100.00;59916.91;5086399;28;20119;-81
2023/12/26 10:55:00;;;;;;;17.73;2.40;;;;;;;-143.54;100.00;59916.91;5094353;28;20035;-81
2023/12/26 10:57:29;;;;;;;10.60;2.60;;;;;;;-143.54;100.00;59916.91;5094337;28;20103;-81